Time;durP1;ratioP1;P1;durP2;ratioP2;P2;SDS_P1;SDS_P2;PMS_P1;PMS_P2;Temp;Humidity;BMP_temperature;BMP_pressure;BME280_temperature;BME280_humidity;BME280_pressure;Samples;Min_cycle;Max_cycle;Signal;HPM_P1;HPM_P2
2021/08/19 00:01:45;;;;;;;7.05;5.13;;;;;;;;;;6308239;22;20458;-61
2021/08/19 00:04:10;;;;;;;6.43;4.70;;;;;;;;;;6307819;22;20564;-62
2021/08/19 00:06:36;;;;;;;7.45;4.80;;;;;;;;;;6307964;22;20145;-63
2021/08/19 00:09:02;;;;;;;7.80;4.60;;;;;;;;;;6307853;22;20155;-63
2021/08/19 00:11:29;;;;;;;8.90;5.15;;;;;;;;;;6307885;22;20225;-63
2021/08/19 00:13:55;;;;;;;6.40;5.25;;;;;;;;;;6308160;22;20153;-63
2021/08/19 00:16:21;;;;;;;8.63;4.57;;;;;;;;;;6307821;22;20142;-63
2021/08/19 00:18:47;;;;;;;9.05;5.55;;;;;;;;;;6307633;22;20508;-63
2021/08/19 00:21:13;;;;;;;9.55;5.45;;;;;;;;;;6280760;22;20158;-63
2021/08/19 00:23:39;;;;;;;7.85;5.00;;;;;;;;;;6307714;22;20488;-63
2021/08/19 00:26:05;;;;;;;6.90;4.35;;;;;;;;;;6307804;22;20158;-62
2021/08/19 00:28:31;;;;;;;7.00;5.30;;;;;;;;;;6307916;22;20217;-62
2021/08/19 00:30:57;;;;;;;10.07;5.20;;;;;;;;;;6307508;22;20440;-62
2021/08/19 00:33:23;;;;;;;6.20;5.10;;;;;;;;;;6308017;22;20185;-62
2021/08/19 00:35:49;;;;;;;8.73;4.90;;;;;;;;;;6307610;22;20431;-62
2021/08/19 00:38:15;;;;;;;5.18;4.68;;;;;;;;;;6307569;22;20261;-62
2021/08/19 00:40:41;;;;;;;7.82;5.00;;;;;;;;;;6307547;22;20138;-62
2021/08/19 00:43:08;;;;;;;8.40;5.35;;;;;;;;;;6307859;22;20597;-63
2021/08/19 00:45:37;;;;;;;8.27;4.97;;;;;;;;;;6307530;22;20540;-62
2021/08/19 00:48:03;;;;;;;8.93;5.38;;;;;;;;;;6307942;22;20440;-62
2021/08/19 00:50:30;;;;;;;6.90;4.85;;;;;;;;;;6307442;22;20150;-63
2021/08/19 00:52:57;;;;;;;6.78;4.65;;;;;;;;;;6307541;22;20170;-63
2021/08/19 00:55:23;;;;;;;10.07;5.00;;;;;;;;;;6307317;22;20150;-62
2021/08/19 00:57:49;;;;;;;8.55;4.97;;;;;;;;;;6307387;22;20143;-63
2021/08/19 01:00:15;;;;;;;5.78;4.78;;;;;;;;;;6307368;22;20146;-62
2021/08/19 01:02:42;;;;;;;6.85;4.65;;;;;;;;;;6307411;22;20466;-62
2021/08/19 01:05:10;;;;;;;5.75;4.22;;;;;;;;;;6307403;22;20494;-63
2021/08/19 01:07:36;;;;;;;5.88;4.55;;;;;;;;;;6307723;22;20433;-64
2021/08/19 01:10:04;;;;;;;5.50;4.20;;;;;;;;;;6307190;22;20142;-62
2021/08/19 01:12:30;;;;;;;6.82;4.40;;;;;;;;;;6307379;22;20204;-63
2021/08/19 01:14:56;;;;;;;4.82;4.20;;;;;;;;;;6307093;22;20142;-62
2021/08/19 01:17:22;;;;;;;6.93;4.07;;;;;;;;;;6307672;22;20157;-63
2021/08/19 01:19:49;;;;;;;7.40;4.50;;;;;;;;;;6307224;22;20165;-67
2021/08/19 01:22:15;;;;;;;5.90;4.18;;;;;;;;;;6307435;22;20446;-67
2021/08/19 01:24:41;;;;;;;5.00;3.88;;;;;;;;;;6307342;22;20149;-67
2021/08/19 01:27:11;;;;;;;5.10;4.03;;;;;;;;;;6307387;22;20138;-67
2021/08/19 01:29:37;;;;;;;7.68;4.38;;;;;;;;;;6307617;22;20151;-67
2021/08/19 01:32:04;;;;;;;5.10;4.13;;;;;;;;;;6307404;22;20594;-66
2021/08/19 01:34:30;;;;;;;5.47;3.95;;;;;;;;;;6307298;22;20644;-67
2021/08/19 01:36:57;;;;;;;9.75;4.45;;;;;;;;;;6307408;22;20142;-67
2021/08/19 01:39:23;;;;;;;6.57;3.88;;;;;;;;;;6307183;22;20219;-67
2021/08/19 01:41:49;;;;;;;6.95;4.35;;;;;;;;;;6307419;22;20134;-66
2021/08/19 01:44:16;;;;;;;8.95;4.55;;;;;;;;;;6307761;22;20135;-66
2021/08/19 01:46:42;;;;;;;6.97;4.28;;;;;;;;;;6307676;22;20582;-66
2021/08/19 01:49:08;;;;;;;5.22;3.95;;;;;;;;;;6308134;22;20138;-67
2021/08/19 01:51:34;;;;;;;6.45;4.20;;;;;;;;;;6307682;22;20142;-67
2021/08/19 01:54:00;;;;;;;7.55;4.43;;;;;;;;;;6308084;22;20143;-67
2021/08/19 01:56:26;;;;;;;6.03;4.53;;;;;;;;;;6307751;22;20176;-67
2021/08/19 02:01:19;;;;;;;9.30;4.70;;;;;;;;;;6168576;22;20525;31
2021/08/19 02:03:45;;;;;;;7.35;4.45;;;;;;;;;;6135877;23;20215;31
2021/08/19 02:15:00;;;;;;;5.93;4.38;;;;;;;;;;6175031;22;20542;-66
2021/08/19 02:22:10;;;;;;;7.40;3.88;;;;;;;;;;6260436;22;20653;31
2021/08/19 02:42:32;;;;;;;6.22;4.18;;;;;;;;;;6260776;22;22156;31
2021/08/19 02:45:08;;;;;;;6.78;4.32;;;;;;;;;;6226961;22;20190;31
2021/08/19 02:52:18;;;;;;;8.02;4.50;;;;;;;;;;6289851;22;20203;31
2021/08/19 03:00:16;;;;;;;5.03;3.40;;;;;;;;;;6144181;23;20199;-65
2021/08/19 03:07:34;;;;;;;4.82;3.50;;;;;;;;;;6116161;23;20221;31
2021/08/19 03:19:28;;;;;;;4.60;3.30;;;;;;;;;;6228852;22;20504;-66
2021/08/19 03:21:53;;;;;;;4.57;2.97;;;;;;;;;;6202197;22;20195;31
2021/08/19 03:29:27;;;;;;;3.75;2.78;;;;;;;;;;6135424;23;20207;31
2021/08/19 03:36:04;;;;;;;6.82;2.65;;;;;;;;;;6317421;22;20200;31
2021/08/19 03:46:53;;;;;;;3.20;2.13;;;;;;;;;;6166945;22;20531;31
2021/08/19 03:53:29;;;;;;;3.28;2.30;;;;;;;;;;6289886;22;20514;31
2021/08/19 04:15:50;;;;;;;4.43;2.10;;;;;;;;;;6203702;22;20210;31
2021/08/19 04:22:43;;;;;;;6.07;2.50;;;;;;;;;;6319493;22;21546;31
2021/08/19 04:29:14;;;;;;;6.65;2.60;;;;;;;;;;6166082;22;20202;31
2021/08/19 04:36:37;;;;;;;8.90;2.97;;;;;;;;;;6255936;22;20204;31
2021/08/19 04:50:23;;;;;;;5.13;2.97;;;;;;;;;;6290225;22;20203;31
2021/08/19 04:54:37;;;;;;;4.90;2.50;;;;;;;;;;6293274;22;20515;31
2021/08/19 05:25:06;;;;;;;6.38;2.60;;;;;;;;;;6294214;22;20208;31
2021/08/19 05:31:45;;;;;;;6.15;2.20;;;;;;;;;;6201599;22;20209;31
2021/08/19 05:58:21;;;;;;;5.32;2.65;;;;;;;;;;6136440;23;20200;31
2021/08/19 06:19:09;;;;;;;6.72;3.17;;;;;;;;;;6287401;22;20208;31
2021/08/19 06:23:19;;;;;;;7.32;3.10;;;;;;;;;;6321785;22;20517;31
2021/08/19 06:32:50;;;;;;;6.35;3.58;;;;;;;;;;6342909;22;20205;31
2021/08/19 06:37:01;;;;;;;8.35;3.65;;;;;;;;;;6320209;22;20517;31
2021/08/19 06:58:00;;;;;;;7.68;4.43;;;;;;;;;;6258279;22;20564;31
2021/08/19 07:05:03;;;;;;;6.95;4.13;;;;;;;;;;6170485;22;20521;31
2021/08/19 07:07:29;;;;;;;9.02;4.80;;;;;;;;;;6143167;23;20611;31
2021/08/19 07:14:03;;;;;;;6.95;4.22;;;;;;;;;;6345874;22;20925;-65
2021/08/19 07:16:29;;;;;;;8.38;4.00;;;;;;;;;;6328547;22;21072;-66
2021/08/19 07:18:55;;;;;;;8.00;4.57;;;;;;;;;;6328533;22;20197;-65
2021/08/19 07:21:21;;;;;;;9.85;4.18;;;;;;;;;;6324454;22;20402;-65
2021/08/19 07:29:29;;;;;;;6.43;3.70;;;;;;;;;;6204360;22;20197;-66
2021/08/19 07:34:21;;;;;;;7.05;4.15;;;;;;;;;;6156418;22;1165725;31
2021/08/19 07:41:39;;;;;;;6.53;3.70;;;;;;;;;;6184331;23;20222;-66
2021/08/19 08:04:11;;;;;;;7.10;3.78;;;;;;;;;;6286009;22;20202;31
2021/08/19 08:15:17;;;;;;;6.80;3.72;;;;;;;;;;6321003;22;20513;31
2021/08/19 08:31:07;;;;;;;5.07;2.95;;;;;;;;;;6136488;23;21083;-60
2021/08/19 08:37:38;;;;;;;5.60;3.08;;;;;;;;;;6296424;22;20199;31
2021/08/19 08:49:26;;;;;;;6.65;3.30;;;;;;;;;;6290141;22;21767;31
2021/08/19 08:56:11;;;;;;;4.35;3.20;;;;;;;;;;5779180;22;20523;-59
2021/08/19 09:05:00;;;;;;;4.65;2.97;;;;;;;;;;5716597;22;20565;31
2021/08/19 09:19:36;;;;;;;4.68;2.10;;;;;;;;;;5664618;22;20214;31
2021/08/19 09:37:10;;;;;;;3.88;2.55;;;;;;;;;;6261159;22;20547;31
2021/08/19 09:39:36;;;;;;;4.70;2.72;;;;;;;;;;6227252;22;20216;31
2021/08/19 09:46:36;;;;;;;5.60;3.08;;;;;;;;;;6296608;22;20199;31
2021/08/19 09:57:43;;;;;;;4.32;2.58;;;;;;;;;;6323354;22;20513;31
2021/08/19 10:06:46;;;;;;;4.28;2.80;;;;;;;;;;6137771;23;20207;31
2021/08/19 10:10:58;;;;;;;5.22;2.72;;;;;;;;;;6293113;22;20504;31
2021/08/19 10:17:39;;;;;;;5.57;2.40;;;;;;;;;;6260991;22;20542;31
2021/08/19 10:31:38;;;;;;;3.70;2.25;;;;;;;;;;6260551;22;20572;31
2021/08/19 10:38:32;;;;;;;3.72;2.45;;;;;;;;;;6260503;22;20617;31
2021/08/19 10:51:53;;;;;;;5.35;1.92;;;;;;;;;;6176056;22;20534;31
2021/08/19 11:01:28;;;;;;;3.90;2.20;;;;;;;;;;6256912;22;20542;31
2021/08/19 11:06:17;;;;;;;2.92;1.58;;;;;;;;;;6291858;22;20551;31
2021/08/19 11:27:13;;;;;;;2.70;2.10;;;;;;;;;;6291306;22;20543;-61
2021/08/19 11:47:49;;;;;;;3.50;1.55;;;;;;;;;;6257821;22;20566;31
2021/08/19 11:54:38;;;;;;;3.90;1.90;;;;;;;;;;6260189;22;20577;31
2021/08/19 12:04:11;;;;;;;2.75;1.50;;;;;;;;;;6264493;22;20204;31
2021/08/19 12:08:49;;;;;;;4.63;1.60;;;;;;;;;;6290208;22;21314;-60
2021/08/19 12:18:01;;;;;;;2.85;1.35;;;;;;;;;;6225231;22;20201;31
2021/08/19 12:28:52;;;;;;;3.00;1.70;;;;;;;;;;6321279;22;21872;-59
2021/08/19 12:45:08;;;;;;;3.05;1.23;;;;;;;;;;6135672;23;20206;31
2021/08/19 12:52:22;;;;;;;1.92;1.08;;;;;;;;;;6341258;22;21066;-59
2021/08/19 13:07:03;;;;;;;2.03;1.20;;;;;;;;;;6226116;22;20479;-57
2021/08/19 13:18:46;;;;;;;1.67;1.15;;;;;;;;;;6346783;22;20613;31
2021/08/19 13:35:22;;;;;;;3.75;1.70;;;;;;;;;;6179687;22;20209;31
2021/08/19 14:09:49;;;;;;;3.05;1.88;;;;;;;;;;6264911;22;20196;31
2021/08/19 14:16:34;;;;;;;4.75;1.80;;;;;;;;;;6136378;23;20203;31
2021/08/19 14:23:10;;;;;;;2.08;1.50;;;;;;;;;;6134784;23;20207;31
2021/08/19 14:37:25;;;;;;;3.60;1.50;;;;;;;;;;6256644;22;20199;31
2021/08/19 14:41:50;;;;;;;4.78;1.70;;;;;;;;;;6290421;22;21778;31
2021/08/19 15:02:02;;;;;;;2.60;1.40;;;;;;;;;;6290895;22;20510;31
2021/08/19 15:11:14;;;;;;;3.03;1.10;;;;;;;;;;6194116;22;20209;31
2021/08/19 15:22:33;;;;;;;3.42;1.30;;;;;;;;;;6228973;22;21438;-58
2021/08/19 15:29:21;;;;;;;3.13;1.38;;;;;;;;;;6323553;22;20566;-59
2021/08/19 15:38:43;;;;;;;2.17;1.13;;;;;;;;;;6194990;22;20197;-59
2021/08/19 15:50:05;;;;;;;2.58;1.52;;;;;;;;;;6289963;22;20543;-58
2021/08/19 15:52:31;;;;;;;3.88;1.52;;;;;;;;;;6232401;22;20186;31
2021/08/19 16:04:08;;;;;;;1.80;1.10;;;;;;;;;;6259034;22;20556;31
2021/08/19 16:24:00;;;;;;;4.75;1.50;;;;;;;;;;6226872;22;20517;-58
2021/08/19 16:30:44;;;;;;;2.78;1.40;;;;;;;;;;6291657;22;20523;31
2021/08/19 16:40:29;;;;;;;1.65;1.13;;;;;;;;;;6289022;22;20203;31
2021/08/19 16:47:07;;;;;;;2.40;1.20;;;;;;;;;;6288576;22;20200;31
2021/08/19 16:51:05;;;;;;;1.92;1.52;;;;;;;;;;5050223;28;20539;-58
2021/08/19 16:53:31;;;;;;;3.33;1.60;;;;;;;;;;5050250;28;20171;-58
2021/08/19 16:55:58;;;;;;;1.83;1.17;;;;;;;;;;5050273;28;20156;-59
2021/08/19 16:58:24;;;;;;;2.28;1.33;;;;;;;;;;5050448;28;20179;-59
2021/08/19 17:00:50;;;;;;;2.30;1.05;;;;;;;;;;5049949;28;20153;-58
2021/08/19 17:03:16;;;;;;;3.65;1.23;;;;;;;;;;5050024;28;20164;-61
2021/08/19 17:05:42;;;;;;;3.42;1.25;;;;;;;;;;5049934;28;20165;-59
2021/08/19 17:08:08;;;;;;;3.45;1.40;;;;;;;;;;5050005;28;20173;-60
2021/08/19 17:10:34;;;;;;;2.83;1.40;;;;;;;;;;5049823;28;20185;-59
2021/08/19 17:13:00;;;;;;;3.72;2.00;;;;;;;;;;5049919;28;20161;-59
2021/08/19 17:15:26;;;;;;;3.17;1.38;;;;;;;;;;5049921;28;20164;-59
2021/08/19 17:17:52;;;;;;;2.55;1.20;;;;;;;;;;5048813;28;20192;-59
2021/08/19 17:20:18;;;;;;;4.43;1.50;;;;;;;;;;5049560;28;20616;-59
2021/08/19 17:22:44;;;;;;;1.92;1.10;;;;;;;;;;5049629;28;20608;-58
2021/08/19 17:25:11;;;;;;;3.97;1.65;;;;;;;;;;5049549;28;20183;-58
2021/08/19 17:27:37;;;;;;;4.85;1.70;;;;;;;;;;5049855;28;20180;-59
2021/08/19 17:30:03;;;;;;;4.68;1.45;;;;;;;;;;5049682;28;20184;-58
2021/08/19 17:32:29;;;;;;;2.90;1.52;;;;;;;;;;5049480;28;20169;-59
2021/08/19 17:34:55;;;;;;;1.98;1.33;;;;;;;;;;5049638;28;20173;-58
2021/08/19 17:37:21;;;;;;;3.10;1.55;;;;;;;;;;5049693;28;20496;-59
2021/08/19 17:39:47;;;;;;;5.90;2.20;;;;;;;;;;5049307;28;20601;-59
2021/08/19 17:42:13;;;;;;;3.35;1.52;;;;;;;;;;5049458;28;20169;-59
2021/08/19 17:44:39;;;;;;;3.80;1.52;;;;;;;;;;5049338;28;20664;-58
2021/08/19 17:47:08;;;;;;;4.15;1.98;;;;;;;;;;5048963;28;20165;-59
2021/08/19 17:49:34;;;;;;;2.97;1.73;;;;;;;;;;5048801;28;20247;-59
2021/08/19 17:52:01;;;;;;;3.95;1.90;;;;;;;;;;5047882;28;20465;-58
2021/08/19 17:54:27;;;;;;;3.47;2.00;;;;;;;;;;5049514;28;20352;-59
2021/08/19 17:56:53;;;;;;;2.95;1.95;;;;;;;;;;5049017;28;20164;-59
2021/08/19 17:59:18;;;;;;;4.45;2.10;;;;;;;;;;5048777;28;20625;-58
2021/08/19 18:01:45;;;;;;;4.63;2.30;;;;;;;;;;5039201;28;20176;-59
2021/08/19 18:04:11;;;;;;;3.67;2.20;;;;;;;;;;5035474;28;20230;-59
2021/08/19 18:06:38;;;;;;;3.97;2.03;;;;;;;;;;5035380;28;20255;-58
2021/08/19 18:09:04;;;;;;;3.80;2.60;;;;;;;;;;5035512;28;20189;-58
2021/08/19 18:11:32;;;;;;;5.25;2.10;;;;;;;;;;5035482;28;20188;-59
2021/08/19 18:13:58;;;;;;;3.95;2.08;;;;;;;;;;5035464;28;20165;-59
2021/08/19 18:16:24;;;;;;;3.65;2.40;;;;;;;;;;5035162;28;20167;-59
2021/08/19 18:18:50;;;;;;;2.38;1.85;;;;;;;;;;5035162;28;20176;-59
2021/08/19 18:21:16;;;;;;;3.58;2.00;;;;;;;;;;5035318;28;20180;-59
2021/08/19 18:23:42;;;;;;;3.70;2.40;;;;;;;;;;5035305;28;20196;-59
2021/08/19 18:26:08;;;;;;;3.03;2.05;;;;;;;;;;5035221;28;20252;-59
2021/08/19 18:28:34;;;;;;;4.35;2.35;;;;;;;;;;5034989;28;20166;-59
2021/08/19 18:31:00;;;;;;;3.67;2.17;;;;;;;;;;5034669;28;20191;-58
2021/08/19 18:33:26;;;;;;;6.57;2.75;;;;;;;;;;5034748;28;20555;-59
2021/08/19 18:35:52;;;;;;;5.07;2.40;;;;;;;;;;5034680;28;20236;-59
2021/08/19 18:38:18;;;;;;;4.70;2.30;;;;;;;;;;5034738;28;20652;-59
2021/08/19 18:40:44;;;;;;;3.42;2.40;;;;;;;;;;5034601;28;20177;-59
2021/08/19 18:43:10;;;;;;;3.53;2.13;;;;;;;;;;5034860;28;20365;-59
2021/08/19 18:45:37;;;;;;;3.60;2.50;;;;;;;;;;5034544;28;20244;-58
2021/08/19 18:48:03;;;;;;;4.72;2.63;;;;;;;;;;5034849;28;20161;-58
2021/08/19 18:50:29;;;;;;;3.15;2.15;;;;;;;;;;5034325;28;20529;-58
2021/08/19 18:52:55;;;;;;;4.43;2.10;;;;;;;;;;5034339;28;20169;-58
2021/08/19 18:55:21;;;;;;;5.95;2.38;;;;;;;;;;5034356;28;20165;-58
2021/08/19 18:57:47;;;;;;;5.97;2.25;;;;;;;;;;5034791;28;20165;-58
2021/08/19 19:00:13;;;;;;;4.00;2.13;;;;;;;;;;5033471;28;20173;-58
2021/08/19 19:02:39;;;;;;;4.13;2.22;;;;;;;;;;5034407;28;20242;-59
2021/08/19 19:05:05;;;;;;;3.15;2.38;;;;;;;;;;5034425;28;20612;-57
2021/08/19 19:07:31;;;;;;;6.55;2.50;;;;;;;;;;5034606;28;20169;-59
2021/08/19 19:09:57;;;;;;;6.20;2.67;;;;;;;;;;5034571;28;20691;-59
2021/08/19 19:12:23;;;;;;;4.65;2.10;;;;;;;;;;5033605;28;20161;-59
2021/08/19 19:14:49;;;;;;;4.78;2.28;;;;;;;;;;5034076;28;20173;-59
2021/08/19 19:17:15;;;;;;;4.68;2.45;;;;;;;;;;5034261;28;20557;-59
2021/08/19 19:19:41;;;;;;;4.68;2.20;;;;;;;;;;5034693;28;20169;-59
2021/08/19 19:22:07;;;;;;;4.80;2.20;;;;;;;;;;5034415;28;20561;-59
2021/08/19 19:24:33;;;;;;;3.70;2.30;;;;;;;;;;5034856;28;20172;-59
2021/08/19 19:26:59;;;;;;;4.07;2.05;;;;;;;;;;5034425;28;20223;-59
2021/08/19 19:29:25;;;;;;;4.78;2.47;;;;;;;;;;5034668;28;20346;-59
2021/08/19 19:31:51;;;;;;;3.22;2.00;;;;;;;;;;5034368;28;20165;-59
2021/08/19 19:34:17;;;;;;;3.97;2.20;;;;;;;;;;5034317;28;20175;-59
2021/08/19 19:36:43;;;;;;;4.38;2.30;;;;;;;;;;5034330;28;20199;-59
2021/08/19 19:39:09;;;;;;;3.70;2.08;;;;;;;;;;5034248;28;20623;-59
2021/08/19 19:41:35;;;;;;;6.13;2.03;;;;;;;;;;5034177;28;20240;-59
2021/08/19 19:44:01;;;;;;;5.20;2.17;;;;;;;;;;5034241;28;20227;-58
2021/08/19 19:46:27;;;;;;;4.30;1.95;;;;;;;;;;5034354;28;20192;-58
2021/08/19 19:48:53;;;;;;;3.55;2.15;;;;;;;;;;5034215;28;20180;-58
2021/08/19 19:51:19;;;;;;;5.95;2.00;;;;;;;;;;5034281;28;20244;-58
2021/08/19 19:53:45;;;;;;;3.53;2.28;;;;;;;;;;5034313;28;20161;-57
2021/08/19 19:56:11;;;;;;;4.32;2.03;;;;;;;;;;5034012;28;20591;-59
2021/08/19 19:58:37;;;;;;;3.35;1.83;;;;;;;;;;5034036;28;20169;-60
2021/08/19 20:01:04;;;;;;;5.88;2.20;;;;;;;;;;5033795;28;20479;-59
2021/08/19 20:03:33;;;;;;;4.38;2.35;;;;;;;;;;5033740;28;20172;-61
2021/08/19 20:06:00;;;;;;;4.05;2.13;;;;;;;;;;5033615;28;20208;-58
2021/08/19 20:08:26;;;;;;;2.47;1.90;;;;;;;;;;5033579;28;20173;-61
2021/08/19 20:10:52;;;;;;;5.38;2.13;;;;;;;;;;5033586;28;20208;-59
2021/08/19 20:13:18;;;;;;;3.50;1.98;;;;;;;;;;5033838;28;20169;-58
2021/08/19 20:15:43;;;;;;;3.25;2.00;;;;;;;;;;5033414;28;20222;-59
2021/08/19 20:18:09;;;;;;;4.07;2.08;;;;;;;;;;5033345;28;20215;-59
2021/08/19 20:20:36;;;;;;;3.85;2.30;;;;;;;;;;5033360;28;20180;-59
2021/08/19 20:23:03;;;;;;;4.78;2.03;;;;;;;;;;5033490;28;20165;-59
2021/08/19 20:25:29;;;;;;;3.67;2.25;;;;;;;;;;5033314;28;20479;-58
2021/08/19 20:27:56;;;;;;;4.28;2.00;;;;;;;;;;5033446;28;20169;-58
2021/08/19 20:30:22;;;;;;;2.72;1.77;;;;;;;;;;5033486;28;20268;-59
2021/08/19 20:32:48;;;;;;;4.10;1.70;;;;;;;;;;5033119;28;20169;-59
2021/08/19 20:35:14;;;;;;;4.95;1.92;;;;;;;;;;5033083;28;20162;-59
2021/08/19 20:37:40;;;;;;;4.80;2.17;;;;;;;;;;5032980;28;20504;-58
2021/08/19 20:40:06;;;;;;;3.83;2.10;;;;;;;;;;5033331;28;20165;-58
2021/08/19 20:42:33;;;;;;;3.35;2.00;;;;;;;;;;5032850;28;20169;-59
2021/08/19 20:44:58;;;;;;;3.30;2.00;;;;;;;;;;5032906;28;20234;-59
2021/08/19 20:47:24;;;;;;;3.60;2.30;;;;;;;;;;5033000;28;20169;-58
2021/08/19 20:49:50;;;;;;;4.78;1.75;;;;;;;;;;5032760;28;20200;-58
2021/08/19 20:52:16;;;;;;;3.97;1.80;;;;;;;;;;5032722;28;20176;-58
2021/08/19 20:54:42;;;;;;;3.83;2.08;;;;;;;;;;5032796;28;20165;-58
2021/08/19 20:57:08;;;;;;;5.28;1.98;;;;;;;;;;5032888;28;20222;-58
2021/08/19 20:59:34;;;;;;;2.80;1.83;;;;;;;;;;5032978;28;20749;-58
2021/08/19 21:02:01;;;;;;;3.90;1.90;;;;;;;;;;5032622;28;20169;-62
2021/08/19 21:04:27;;;;;;;3.10;1.73;;;;;;;;;;5032864;28;20181;-59
2021/08/19 21:06:53;;;;;;;4.45;1.80;;;;;;;;;;5032557;28;20668;-59
2021/08/19 21:09:19;;;;;;;3.20;1.90;;;;;;;;;;5032629;28;20193;-59
2021/08/19 21:11:45;;;;;;;2.60;1.65;;;;;;;;;;5032533;28;20189;-59
2021/08/19 21:14:11;;;;;;;2.75;1.70;;;;;;;;;;5032394;28;20172;-59
2021/08/19 21:16:37;;;;;;;3.95;2.00;;;;;;;;;;5032440;28;20165;-59
2021/08/19 21:19:03;;;;;;;2.13;1.60;;;;;;;;;;5032676;28;20203;-59
2021/08/19 21:21:29;;;;;;;2.22;1.48;;;;;;;;;;5032444;28;20622;-59
2021/08/19 21:23:55;;;;;;;4.18;1.90;;;;;;;;;;5032345;28;20323;-59
2021/08/19 21:26:21;;;;;;;4.13;2.00;;;;;;;;;;5032646;28;20177;-59
2021/08/19 21:28:47;;;;;;;3.10;1.50;;;;;;;;;;5032167;28;20180;-59
2021/08/19 21:31:13;;;;;;;2.35;1.50;;;;;;;;;;5032268;28;20177;-59
2021/08/19 21:33:39;;;;;;;2.72;1.60;;;;;;;;;;5032224;28;20624;-59
2021/08/19 21:36:05;;;;;;;2.13;1.33;;;;;;;;;;5033243;28;20165;-59
2021/08/19 21:38:31;;;;;;;3.70;1.60;;;;;;;;;;5035894;28;20474;-59
2021/08/19 21:40:57;;;;;;;3.15;1.48;;;;;;;;;;5035888;28;20173;-59
2021/08/19 21:43:23;;;;;;;1.83;1.42;;;;;;;;;;5035785;28;20168;-60
2021/08/19 21:45:49;;;;;;;2.13;1.38;;;;;;;;;;5036153;28;20183;-59
2021/08/19 21:48:15;;;;;;;1.33;1.13;;;;;;;;;;5035757;28;20169;-59
2021/08/19 21:50:41;;;;;;;4.65;1.30;;;;;;;;;;5035643;28;20276;-59
2021/08/19 21:53:08;;;;;;;4.20;1.27;;;;;;;;;;5035711;28;20158;-59
2021/08/19 21:55:34;;;;;;;2.42;1.20;;;;;;;;;;5035915;28;20180;-59
2021/08/19 21:58:00;;;;;;;2.85;1.55;;;;;;;;;;5035833;28;20180;-59
2021/08/19 22:00:26;;;;;;;1.05;0.90;;;;;;;;;;5035556;28;20165;-59
2021/08/19 22:02:52;;;;;;;2.78;1.30;;;;;;;;;;5035507;28;20255;-59
2021/08/19 22:05:17;;;;;;;2.75;1.10;;;;;;;;;;5035509;28;20170;-59
2021/08/19 22:07:43;;;;;;;5.22;1.40;;;;;;;;;;5035455;28;20248;-59
2021/08/19 22:10:11;;;;;;;1.38;1.10;;;;;;;;;;5035257;28;20193;-58
2021/08/19 22:12:38;;;;;;;3.65;1.30;;;;;;;;;;5035291;28;20617;-59
2021/08/19 22:15:04;;;;;;;2.28;1.13;;;;;;;;;;5035508;28;20195;-59
2021/08/19 22:17:30;;;;;;;2.38;1.10;;;;;;;;;;5035297;28;20201;-59
2021/08/19 22:19:56;;;;;;;2.78;1.10;;;;;;;;;;5035216;28;20193;-59
2021/08/19 22:22:22;;;;;;;1.90;1.08;;;;;;;;;;5035209;28;20169;-58
2021/08/19 22:24:48;;;;;;;1.92;1.05;;;;;;;;;;5035093;28;20165;-58
2021/08/19 22:27:14;;;;;;;3.40;1.13;;;;;;;;;;5035418;28;20177;-59
2021/08/19 22:29:43;;;;;;;2.00;1.02;;;;;;;;;;5034991;28;20189;-59
2021/08/19 22:32:10;;;;;;;3.45;1.30;;;;;;;;;;5035298;28;20169;-59
2021/08/19 22:34:35;;;;;;;2.58;1.10;;;;;;;;;;5035156;28;20446;-59
2021/08/19 22:37:01;;;;;;;2.90;1.00;;;;;;;;;;5035028;28;20612;-59
2021/08/19 22:39:27;;;;;;;2.42;1.15;;;;;;;;;;5034949;28;20195;-59
2021/08/19 22:41:53;;;;;;;1.60;0.85;;;;;;;;;;5035193;28;20213;-58
2021/08/19 22:44:19;;;;;;;3.97;1.48;;;;;;;;;;5034871;28;20614;-59
2021/08/19 22:46:45;;;;;;;2.95;1.30;;;;;;;;;;5034788;28;20184;-58
2021/08/19 22:49:11;;;;;;;2.55;0.90;;;;;;;;;;5034584;28;20211;-58
2021/08/19 22:51:37;;;;;;;4.18;1.30;;;;;;;;;;5034829;28;20510;-59
2021/08/19 22:54:03;;;;;;;2.25;1.20;;;;;;;;;;5034710;28;20161;-59
2021/08/19 22:56:29;;;;;;;2.65;1.23;;;;;;;;;;5034726;28;20165;-60
2021/08/19 22:58:55;;;;;;;1.73;0.90;;;;;;;;;;5034895;28;20169;-60
2021/08/19 23:01:21;;;;;;;2.83;0.98;;;;;;;;;;5034752;28;20540;-59
2021/08/19 23:03:47;;;;;;;2.40;1.00;;;;;;;;;;5034723;28;20162;-59
2021/08/19 23:06:13;;;;;;;3.17;1.20;;;;;;;;;;5034910;28;20165;-59
2021/08/19 23:08:39;;;;;;;2.85;1.10;;;;;;;;;;5034826;28;20226;-59
2021/08/19 23:11:05;;;;;;;3.88;2.03;;;;;;;;;;5035209;28;20193;-58
2021/08/19 23:13:31;;;;;;;2.90;1.00;;;;;;;;;;5034914;28;20556;-59
2021/08/19 23:15:57;;;;;;;2.22;1.00;;;;;;;;;;5034866;28;20169;-59
2021/08/19 23:18:23;;;;;;;2.30;1.00;;;;;;;;;;5034733;28;20498;-59
2021/08/19 23:20:49;;;;;;;3.13;1.20;;;;;;;;;;5034596;28;20173;-59
2021/08/19 23:23:15;;;;;;;2.65;1.13;;;;;;;;;;5035005;28;20515;-59
2021/08/19 23:25:41;;;;;;;3.30;1.40;;;;;;;;;;5034877;28;20561;-59
2021/08/19 23:28:07;;;;;;;3.55;1.30;;;;;;;;;;5035005;28;20231;-59
2021/08/19 23:30:33;;;;;;;1.98;1.40;;;;;;;;;;5034488;28;20188;-59
2021/08/19 23:32:59;;;;;;;3.58;1.52;;;;;;;;;;5034606;28;20180;-58
2021/08/19 23:35:25;;;;;;;2.53;1.20;;;;;;;;;;5034546;28;20634;-59
2021/08/19 23:37:51;;;;;;;5.00;1.48;;;;;;;;;;5034632;28;20253;-58
2021/08/19 23:40:17;;;;;;;2.53;1.05;;;;;;;;;;5034202;28;20526;-58
2021/08/19 23:42:43;;;;;;;3.78;1.50;;;;;;;;;;5034237;28;20174;-57
2021/08/19 23:45:09;;;;;;;3.17;1.30;;;;;;;;;;5034138;28;20174;-59
2021/08/19 23:47:35;;;;;;;4.93;1.48;;;;;;;;;;5034093;28;20268;-59
2021/08/19 23:50:01;;;;;;;2.10;1.52;;;;;;;;;;5033768;28;20205;-60
2021/08/19 23:52:29;;;;;;;2.25;1.55;;;;;;;;;;5034219;28;20165;-59
2021/08/19 23:54:55;;;;;;;2.55;1.30;;;;;;;;;;5033837;28;20602;-59
2021/08/19 23:57:21;;;;;;;2.65;1.33;;;;;;;;;;5034034;28;20168;-59
2021/08/19 23:59:47;;;;;;;4.07;1.60;;;;;;;;;;5033177;28;20197;-59
